TimePST,TemperatureF,Dew PointF,Humidity,Sea Level PressureIn,VisibilityMPH,Wind Direction,Wind SpeedMPH,Gust SpeedMPH,PrecipitationIn,Events,Conditions,WindDirDegrees,DateUTC
12:15 AM,37.4,28.4,70,29.82,10.0,ESE,10.4,-,N/A,,Scattered Clouds,120,2012-11-18 08:15:00
12:35 AM,35.6,28.4,75,29.82,10.0,SE,6.9,-,N/A,,Mostly Cloudy,130,2012-11-18 08:35:00
12:55 AM,37.4,30.2,75,29.84,10.0,SW,5.8,-,N/A,,Overcast,230,2012-11-18 08:55:00
1:15 AM,37.4,28.4,70,29.84,10.0,WSW,3.5,-,N/A,,Mostly Cloudy,250,2012-11-18 09:15:00
1:35 AM,35.6,28.4,75,29.84,10.0,SSW,3.5,-,N/A,,Scattered Clouds,210,2012-11-18 09:35:00
1:55 AM,35.6,28.4,75,29.85,10.0,SW,4.6,-,N/A,,Partly Cloudy,220,2012-11-18 09:55:00
2:15 AM,33.8,26.6,75,29.85,10.0,SSW,4.6,-,N/A,,Clear,200,2012-11-18 10:15:00
2:35 AM,33.8,26.6,75,29.86,10.0,SSW,3.5,-,N/A,,Clear,210,2012-11-18 10:35:00
2:55 AM,32.0,24.8,75,29.86,10.0,South,5.8,-,N/A,,Clear,190,2012-11-18 10:55:00
3:15 AM,32.0,24.8,75,29.87,10.0,SSW,4.6,-,N/A,,Clear,200,2012-11-18 11:15:00
3:35 AM,33.8,24.8,70,29.87,10.0,SSW,9.2,-,N/A,,Clear,200,2012-11-18 11:35:00
3:55 AM,33.8,26.6,75,29.87,10.0,South,8.1,-,N/A,,Clear,170,2012-11-18 11:55:00
4:15 AM,33.8,26.6,75,29.88,10.0,North,4.6,-,N/A,,Clear,360,2012-11-18 12:15:00
4:35 AM,33.8,24.8,70,29.90,10.0,Calm,Calm,-,N/A,,Clear,0,2012-11-18 12:35:00
4:55 AM,30.2,24.8,80,29.91,10.0,Calm,Calm,-,N/A,,Clear,0,2012-11-18 12:55:00
5:15 AM,28.4,21.2,74,29.91,10.0,Calm,Calm,-,N/A,,Clear,0,2012-11-18 13:15:00
5:35 AM,30.2,21.2,69,29.92,10.0,WNW,3.5,-,N/A,,Clear,290,2012-11-18 13:35:00
5:55 AM,30.2,24.8,80,29.92,10.0,Calm,Calm,-,N/A,,Clear,0,2012-11-18 13:55:00
6:15 AM,30.2,23.0,75,29.92,10.0,SSW,4.6,-,N/A,,Partly Cloudy,200,2012-11-18 14:15:00
6:35 AM,30.2,21.2,69,29.92,10.0,Calm,Calm,-,N/A,,Clear,0,2012-11-18 14:35:00
6:55 AM,28.4,21.2,74,29.92,10.0,Calm,Calm,-,N/A,,Clear,0,2012-11-18 14:55:00
7:15 AM,28.4,21.2,74,29.92,10.0,Calm,Calm,-,N/A,,Clear,0,2012-11-18 15:15:00
7:35 AM,32.0,24.8,75,29.93,10.0,WNW,6.9,-,N/A,,Clear,300,2012-11-18 15:35:00
7:55 AM,33.8,24.8,70,29.94,10.0,Calm,Calm,-,N/A,,Clear,0,2012-11-18 15:55:00
8:15 AM,32.0,24.8,75,29.95,10.0,ESE,4.6,-,N/A,,Clear,120,2012-11-18 16:15:00
8:35 AM,32.0,24.8,75,29.94,10.0,Calm,Calm,-,N/A,,Clear,0,2012-11-18 16:35:00
8:55 AM,33.8,26.6,75,29.94,10.0,NE,5.8,-,N/A,,Clear,50,2012-11-18 16:55:00
9:15 AM,33.8,26.6,75,29.94,10.0,Calm,Calm,-,N/A,,Clear,0,2012-11-18 17:15:00
9:35 AM,37.4,30.2,75,29.96,10.0,South,11.5,-,N/A,,Partly Cloudy,180,2012-11-18 17:35:00
9:55 AM,39.2,30.2,70,29.96,10.0,South,12.7,-,N/A,,Mostly Cloudy,190,2012-11-18 17:55:00
10:15 AM,39.2,28.4,65,29.97,10.0,SSW,16.1,-,N/A,,Overcast,200,2012-11-18 18:15:00
10:35 AM,39.2,28.4,65,29.97,10.0,SSE,12.7,-,N/A,,Mostly Cloudy,160,2012-11-18 18:35:00
10:55 AM,41.0,28.4,61,29.96,10.0,South,10.4,-,N/A,,Scattered Clouds,180,2012-11-18 18:55:00
11:15 AM,42.8,28.4,57,29.96,10.0,SSW,11.5,18.4,N/A,,Mostly Cloudy,200,2012-11-18 19:15:00
11:35 AM,42.8,28.4,57,29.95,10.0,South,10.4,16.1,N/A,,Overcast,170,2012-11-18 19:35:00
11:55 AM,42.8,28.4,57,29.94,10.0,SE,9.2,-,N/A,,Overcast,140,2012-11-18 19:55:00
12:15 PM,44.6,30.2,57,29.94,10.0,SSE,8.1,-,N/A,,Scattered Clouds,150,2012-11-18 20:15:00
12:35 PM,46.4,30.2,53,29.93,10.0,South,15.0,18.4,N/A,,Scattered Clouds,170,2012-11-18 20:35:00
12:55 PM,44.6,30.2,57,29.93,10.0,South,13.8,19.6,N/A,,Overcast,180,2012-11-18 20:55:00
1:15 PM,44.6,30.2,57,29.92,10.0,South,13.8,20.7,N/A,,Overcast,180,2012-11-18 21:15:00
1:35 PM,46.4,30.2,53,29.92,10.0,SSE,18.4,21.9,N/A,,Overcast,150,2012-11-18 21:35:00
1:55 PM,46.4,28.4,50,29.91,10.0,SSE,15.0,-,N/A,,Overcast,150,2012-11-18 21:55:00
2:15 PM,46.4,28.4,50,29.91,10.0,SE,16.1,-,N/A,,Overcast,130,2012-11-18 22:15:00
2:35 PM,46.4,28.4,50,29.90,10.0,SSE,18.4,24.2,N/A,,Mostly Cloudy,150,2012-11-18 22:35:00
2:55 PM,46.4,26.6,46,29.90,10.0,SE,17.3,24.2,N/A,,Scattered Clouds,140,2012-11-18 22:55:00
3:15 PM,44.6,26.6,49,29.91,10.0,SE,17.3,21.9,N/A,,Partly Cloudy,140,2012-11-18 23:15:00
3:35 PM,44.6,26.6,49,29.91,10.0,SE,15.0,20.7,N/A,,Clear,140,2012-11-18 23:35:00
3:55 PM,44.6,26.6,49,29.91,10.0,SE,15.0,25.3,N/A,,Clear,140,2012-11-18 23:55:00
4:15 PM,42.8,26.6,53,29.92,10.0,SE,15.0,21.9,N/A,,Partly Cloudy,140,2012-11-19 00:15:00
4:35 PM,42.8,26.6,53,29.92,10.0,SE,13.8,18.4,N/A,,Scattered Clouds,140,2012-11-19 00:35:00
4:55 PM,42.8,26.6,53,29.92,10.0,SSE,9.2,-,N/A,,Scattered Clouds,150,2012-11-19 00:55:00
5:15 PM,42.8,26.6,53,29.92,10.0,SE,15.0,20.7,N/A,,Mostly Cloudy,140,2012-11-19 01:15:00
5:35 PM,42.8,26.6,53,29.91,10.0,SE,13.8,-,N/A,,Overcast,140,2012-11-19 01:35:00
6:15 PM,42.8,26.6,53,29.92,10.0,SSE,15.0,-,N/A,,Overcast,150,2012-11-19 02:15:00
6:35 PM,44.6,26.6,49,29.92,10.0,SSE,17.3,28.8,N/A,,Overcast,150,2012-11-19 02:35:00
6:55 PM,44.6,26.6,49,29.91,10.0,SSE,16.1,24.2,N/A,,Overcast,150,2012-11-19 02:55:00
7:15 PM,44.6,24.8,46,29.90,10.0,SSE,19.6,24.2,N/A,,Overcast,160,2012-11-19 03:15:00
7:35 PM,44.6,26.6,49,29.90,10.0,South,12.7,19.6,N/A,,Overcast,170,2012-11-19 03:35:00
7:55 PM,44.6,26.6,49,29.89,10.0,SSE,16.1,25.3,N/A,,Overcast,160,2012-11-19 03:55:00
8:15 PM,44.6,24.8,46,29.89,10.0,South,11.5,-,N/A,,Overcast,170,2012-11-19 04:15:00
8:35 PM,44.6,24.8,46,29.90,10.0,South,13.8,-,N/A,,Overcast,170,2012-11-19 04:35:00
8:55 PM,44.6,26.6,49,29.90,10.0,SSE,21.9,27.6,N/A,,Overcast,160,2012-11-19 04:55:00
9:15 PM,44.6,26.6,49,29.91,10.0,SSE,18.4,27.6,N/A,,Overcast,160,2012-11-19 05:15:00
9:55 PM,44.6,26.6,49,29.91,10.0,South,18.4,26.5,N/A,,Overcast,170,2012-11-19 05:55:00
10:15 PM,44.6,26.6,49,29.91,10.0,South,16.1,-,N/A,,Overcast,180,2012-11-19 06:15:00
10:35 PM,44.6,28.4,53,29.91,10.0,South,13.8,21.9,N/A,,Overcast,170,2012-11-19 06:35:00
10:55 PM,44.6,28.4,53,29.92,10.0,South,16.1,21.9,N/A,,Overcast,170,2012-11-19 06:55:00
11:15 PM,44.6,28.4,53,29.93,10.0,SSE,13.8,19.6,N/A,,Overcast,160,2012-11-19 07:15:00
11:35 PM,44.6,28.4,53,29.93,10.0,South,12.7,19.6,N/A,,Overcast,180,2012-11-19 07:35:00
11:55 PM,44.6,28.4,53,29.92,10.0,South,20.7,27.6,N/A,,Overcast,170,2012-11-19 07:55:00